Terminal Aerodrome Forecast
Issued by NWS

Home | Current Version | Previous Version | Text Only | Print | Product List | Glossary Off
Versions: 1 2 3 4 5 6 7 8 9 10 11 12 13 14 15 16 17

000
FTUS43 KICT 211051 AAC
TAFRSL
TAF AMD
KRSL 211051Z 2111/2206 01005KT 4SM BR BKN005
     FM211500 17006KT P6SM FEW020
     FM211700 18011KT P6SM SKC=

USA.gov is the U.S. government's official web portal to all federal, state and local government web resources and services.